Time;durP1;ratioP1;P1;durP2;ratioP2;P2;SDS_P1;SDS_P2;PMS_P1;PMS_P2;Temp;Humidity;BMP_temperature;BMP_pressure;BME280_temperature;BME280_humidity;BME280_pressure;Samples;Min_cycle;Max_cycle;Signal;HPM_P1;HPM_P2
2022/01/23 00:01:41;;;;;;;105.80;42.05;;;12.90;2201.60;;;;;;4844726;29;20057;-82
2022/01/23 00:04:06;;;;;;;124.70;57.83;;;12.90;2201.60;;;;;;4846894;29;20377;-85
2022/01/23 00:06:32;;;;;;;49.60;24.27;;;12.90;2201.60;;;;;;4847261;29;20029;-81
2022/01/23 00:08:58;;;;;;;55.70;28.42;;;12.90;2201.60;;;;;;4863436;29;20024;-83
2022/01/23 00:11:27;;;;;;;33.55;19.33;;;12.90;2201.60;;;;;;4847081;29;20053;-78
2022/01/23 00:19:11;;;;;;;27.25;17.25;;;0.10;2201.60;;;;;;4863833;29;20142;-84
2022/01/23 00:21:39;;;;;;;16.00;9.15;;;0.10;2201.60;;;;;;4846976;29;20033;-81
2022/01/23 00:32:00;;;;;;;41.20;21.38;;;0.10;2201.60;;;;;;4862758;29;20024;-85
2022/01/23 00:34:25;;;;;;;37.55;23.05;;;12.90;2201.60;;;;;;4846805;29;20026;-84
2022/01/23 00:36:51;;;;;;;33.28;19.15;;;12.90;2201.60;;;;;;4846798;29;20034;-81
2022/01/23 00:39:17;;;;;;;25.92;13.55;;;13.00;2201.60;;;;;;4846676;29;20036;-87
2022/01/23 00:41:43;;;;;;;21.70;12.80;;;13.10;2201.60;;;;;;4846807;29;20443;-85
2022/01/23 00:44:09;;;;;;;29.23;17.35;;;13.00;2201.60;;;;;;4846374;29;20034;-85
2022/01/23 00:46:37;;;;;;;35.65;19.75;;;13.00;2201.60;;;;;;4846626;29;20025;-84
2022/01/23 00:51:38;;;;;;;59.03;27.48;;;13.00;2201.60;;;;;;4862921;29;20037;-85
2022/01/23 00:54:07;;;;;;;41.70;21.50;;;12.90;2201.60;;;;;;4846425;29;20069;-88
2022/01/23 00:56:33;;;;;;;36.55;18.45;;;12.90;2201.60;;;;;;4846332;29;20026;-83
2022/01/23 00:58:59;;;;;;;22.35;12.60;;;12.90;2201.60;;;;;;4846258;29;20062;-86
2022/01/23 01:01:26;;;;;;;16.85;10.43;;;12.90;2201.60;;;;;;4846413;29;20028;-85
2022/01/23 01:03:52;;;;;;;18.17;12.35;;;0.00;2201.60;;;;;;4846245;29;20040;-84
2022/01/23 01:06:18;;;;;;;26.83;16.40;;;0.10;2201.60;;;;;;4846148;29;20400;-85
2022/01/23 01:08:47;;;;;;;28.23;15.85;;;0.10;2201.60;;;;;;4845983;29;20036;-85
2022/01/23 01:30:23;;;;;;;28.88;15.35;;;0.30;2201.60;;;;;;4862079;29;20085;-86
2022/01/23 01:35:29;;;;;;;30.45;19.88;;;0.30;2201.60;;;;;;4862080;29;20033;-87
2022/01/23 01:37:55;;;;;;;29.13;17.33;;;0.20;2201.60;;;;;;4845957;29;20071;-82
2022/01/23 01:40:23;;;;;;;27.40;17.00;;;0.30;2201.60;;;;;;4845683;29;20022;-85
2022/01/23 01:42:49;;;;;;;25.60;16.40;;;0.20;2201.60;;;;;;4845647;29;20040;-85
2022/01/23 01:45:24;;;;;;;24.45;15.68;;;0.20;2201.60;;;;;;4845312;29;20029;-85
2022/01/23 01:47:52;;;;;;;27.00;16.95;;;0.20;2201.60;;;;;;4845457;29;20101;-86
2022/01/23 01:50:19;;;;;;;28.83;17.23;;;0.20;2201.60;;;;;;4845658;29;20025;-84
2022/01/23 01:52:45;;;;;;;29.15;17.00;;;0.20;2201.60;;;;;;4848888;29;20146;-85
2022/01/23 01:55:17;;;;;;;23.13;16.17;;;0.20;2201.60;;;;;;4852487;29;20370;-83
2022/01/23 01:57:52;;;;;;;20.17;13.93;;;0.10;2201.60;;;;;;4849527;29;20351;-89
2022/01/23 02:10:53;;;;;;;24.30;14.60;;;0.20;2201.60;;;;;;4861898;29;20030;-83
2022/01/23 02:13:25;;;;;;;23.25;15.13;;;0.20;2201.60;;;;;;4845251;29;20030;-82
2022/01/23 02:51:11;;;;;;;21.90;13.68;;;0.50;2201.60;;;;;;4861516;29;20084;-86
2022/01/23 02:54:19;;;;;;;21.92;13.25;;;0.40;2201.60;;;;;;4845350;29;20114;-86
2022/01/23 02:56:33;;;;;;;31.98;17.67;;;0.40;2201.60;;;;;;4864439;29;20033;-86
2022/01/23 02:59:00;;;;;;;37.35;22.55;;;0.50;2201.60;;;;;;4848516;29;20060;-88
2022/01/23 03:01:30;;;;;;;37.10;21.50;;;0.50;2201.60;;;;;;4848443;29;20033;-86
2022/01/23 03:04:01;;;;;;;20.30;13.15;;;0.40;2201.60;;;;;;4848325;29;20074;-85
2022/01/23 03:29:52;;;;;;;20.75;12.50;;;12.90;2201.60;;;;;;4864649;29;20025;-85
2022/01/23 03:32:28;;;;;;;20.67;12.53;;;0.00;2201.60;;;;;;4847729;29;20036;-82
2022/01/23 03:34:55;;;;;;;16.85;9.85;;;13.00;2201.60;;;;;;4848012;29;20100;-87
2022/01/23 03:37:21;;;;;;;18.67;11.68;;;12.90;2201.60;;;;;;4847714;29;20033;-86
2022/01/23 03:39:47;;;;;;;20.58;10.35;;;12.90;2201.60;;;;;;4847610;29;20450;-83
2022/01/23 03:42:13;;;;;;;14.80;9.50;;;13.10;2201.60;;;;;;4847959;29;20025;-81
2022/01/23 03:44:44;;;;;;;13.45;8.32;;;12.90;2201.60;;;;;;4847704;29;20435;-86
2022/01/23 03:47:20;;;;;;;14.60;8.63;;;12.90;2201.60;;;;;;4847430;29;20029;-85
2022/01/23 03:49:48;;;;;;;15.10;10.45;;;13.00;2201.60;;;;;;4847776;29;20029;-83
2022/01/23 03:52:15;;;;;;;26.80;14.32;;;12.90;2201.60;;;;;;4847422;29;20053;-84
2022/01/23 03:54:42;;;;;;;24.38;12.15;;;12.90;2201.60;;;;;;4847341;29;20196;-85
2022/01/23 03:57:08;;;;;;;13.60;8.48;;;12.90;2201.60;;;;;;4847547;29;20454;-85
2022/01/23 03:59:36;;;;;;;16.40;9.95;;;12.90;2201.60;;;;;;4847313;29;20029;-85
2022/01/23 04:02:02;;;;;;;17.73;10.40;;;12.90;2201.60;;;;;;4847544;29;20073;-85
2022/01/23 04:07:00;;;;;;;16.07;9.07;;;13.00;2201.60;;;;;;4862935;29;20062;-84
2022/01/23 04:09:25;;;;;;;21.52;10.43;;;13.00;2201.60;;;;;;4847470;29;20260;-85
2022/01/23 04:11:52;;;;;;;14.27;8.45;;;13.00;2201.60;;;;;;4847135;29;20022;-82
2022/01/23 04:14:20;;;;;;;24.30;13.80;;;13.00;2201.60;;;;;;4846942;29;20113;-86
2022/01/23 04:59:53;;;;;;;45.85;23.95;;;13.30;2201.60;;;;;;4863066;29;20036;-81
2022/01/23 05:04:59;;;;;;;32.50;17.33;;;13.30;2201.60;;;;;;4864074;29;20029;-88
2022/01/23 05:07:28;;;;;;;22.85;11.82;;;13.40;2201.60;;;;;;4846403;29;20029;-86
2022/01/23 05:09:54;;;;;;;37.90;21.98;;;13.40;2201.60;;;;;;4846473;29;20482;-83
2022/01/23 05:12:27;;;;;;;23.63;14.35;;;13.40;2201.60;;;;;;4846131;29;20047;-86
2022/01/23 05:14:53;;;;;;;;;;;13.30;2201.60;;;;;;4846871;29;20128;-85
2022/01/23 05:17:19;;;;;;;23.85;13.23;;;13.20;2201.60;;;;;;4845633;29;20428;-83
2022/01/23 05:19:45;;;;;;;33.85;20.77;;;13.40;2201.60;;;;;;4845894;29;20025;-85
2022/01/23 05:22:20;;;;;;;35.50;19.30;;;13.30;2201.60;;;;;;4845949;29;20450;-83
2022/01/23 05:24:52;;;;;;;21.98;11.57;;;13.30;2201.60;;;;;;4846040;29;20029;-82
2022/01/23 05:27:21;;;;;;;32.97;18.73;;;13.30;2201.60;;;;;;4846175;29;20025;-81
2022/01/23 05:29:47;;;;;;;23.73;13.77;;;13.60;2201.60;;;;;;4846149;29;20328;-85
2022/01/23 05:32:14;;;;;;;32.70;17.65;;;13.40;2201.60;;;;;;4846291;29;20474;-83
2022/01/23 05:34:40;;;;;;;30.40;14.40;;;13.40;2201.60;;;;;;4846595;29;20033;-83
2022/01/23 05:37:06;;;;;;;30.17;15.38;;;13.40;2201.60;;;;;;4846419;29;20362;-81
2022/01/23 05:39:33;;;;;;;17.65;11.20;;;13.40;2201.60;;;;;;4846497;29;20121;-86
2022/01/23 05:42:06;;;;;;;22.13;12.32;;;13.40;2201.60;;;;;;4846399;29;20026;-84
2022/01/23 05:44:36;;;;;;;19.33;12.95;;;13.40;2201.60;;;;;;4847043;29;20033;-83
2022/01/23 05:47:04;;;;;;;17.42;10.68;;;13.40;2201.60;;;;;;4846378;29;20093;-81
2022/01/23 05:49:30;;;;;;;18.52;10.23;;;13.30;2201.60;;;;;;4846023;29;20025;-85
2022/01/23 05:51:56;;;;;;;33.65;17.30;;;13.30;2201.60;;;;;;4846131;29;20173;-79
2022/01/23 05:54:21;;;;;;;33.47;16.85;;;13.30;2201.60;;;;;;4845726;29;20074;-80
2022/01/23 05:56:47;;;;;;;65.28;27.73;;;13.40;2201.60;;;;;;4845802;29;20056;-87
2022/01/23 05:59:13;;;;;;;28.20;15.32;;;13.30;2201.60;;;;;;4845640;29;20108;-78
2022/01/23 06:01:39;;;;;;;43.70;25.17;;;13.30;2201.60;;;;;;4847019;29;20378;-81
2022/01/23 06:04:05;;;;;;;28.42;15.05;;;13.30;2201.60;;;;;;4846224;29;20025;-82
2022/01/23 06:06:31;;;;;;;17.83;11.50;;;13.40;2201.60;;;;;;4848620;29;20022;-80
2022/01/23 06:08:57;;;;;;;28.40;20.83;;;13.30;2201.60;;;;;;4846105;29;20025;-79
2022/01/23 06:11:23;;;;;;;21.42;14.07;;;13.30;2201.60;;;;;;4845850;29;20030;-79
2022/01/23 06:13:49;;;;;;;19.75;11.70;;;13.30;2201.60;;;;;;4845777;29;20037;-87
2022/01/23 06:16:15;;;;;;;18.02;11.00;;;13.30;2201.60;;;;;;4830064;29;20030;-83
2022/01/23 06:18:43;;;;;;;15.18;9.93;;;13.20;2201.60;;;;;;4862528;29;20021;-80
2022/01/23 06:21:09;;;;;;;21.88;15.00;;;13.20;2201.60;;;;;;4845258;29;20022;-85
2022/01/23 06:23:35;;;;;;;18.40;11.93;;;13.20;2201.60;;;;;;4845338;29;20029;-83
2022/01/23 06:26:01;;;;;;;16.25;10.35;;;13.20;2201.60;;;;;;4845163;29;20080;-83
2022/01/23 06:28:48;;;;;;;19.23;11.35;;;13.20;2201.60;;;;;;4845585;29;20033;-81
2022/01/23 06:31:14;;;;;;;21.20;9.90;;;13.20;2201.60;;;;;;4849394;29;20402;-85
2022/01/23 06:33:40;;;;;;;19.38;10.90;;;13.20;2201.60;;;;;;4848717;29;20055;-83
2022/01/23 06:36:06;;;;;;;20.92;12.07;;;13.10;2201.60;;;;;;4848769;29;20037;-83
2022/01/23 06:38:32;;;;;;;20.20;12.15;;;13.20;2201.60;;;;;;4848888;29;20493;-86
2022/01/23 06:40:58;;;;;;;20.90;12.93;;;13.10;2201.60;;;;;;4848701;29;20029;-86
2022/01/23 06:43:24;;;;;;;18.95;9.85;;;13.10;2201.60;;;;;;4848711;29;20029;-83
2022/01/23 06:45:50;;;;;;;16.90;9.48;;;13.10;2201.60;;;;;;4848921;29;20030;-85
2022/01/23 06:48:16;;;;;;;21.55;9.75;;;13.20;2201.60;;;;;;4848750;29;20079;-82
2022/01/23 06:50:42;;;;;;;18.85;9.85;;;13.20;2201.60;;;;;;4848870;29;20029;-86
2022/01/23 06:53:08;;;;;;;27.45;15.02;;;13.10;2201.60;;;;;;4848362;29;20064;-82
2022/01/23 06:55:33;;;;;;;23.45;12.70;;;13.10;2201.60;;;;;;4848443;29;20082;-86
2022/01/23 06:57:59;;;;;;;27.45;14.55;;;13.00;2201.60;;;;;;4848422;29;20025;-84
2022/01/23 07:00:25;;;;;;;23.67;14.43;;;13.10;2201.60;;;;;;4848547;29;20025;-84
2022/01/23 07:02:51;;;;;;;19.23;11.70;;;13.10;2201.60;;;;;;4848056;29;20447;-85
2022/01/23 07:05:17;;;;;;;21.67;12.48;;;13.10;2201.60;;;;;;4848432;29;20061;-83
2022/01/23 07:07:43;;;;;;;30.25;16.80;;;13.00;2201.60;;;;;;4848383;29;20462;-84
2022/01/23 07:10:09;;;;;;;26.38;15.75;;;13.10;2201.60;;;;;;4848157;29;20082;-85
2022/01/23 07:12:35;;;;;;;30.50;16.50;;;0.60;2201.60;;;;;;4848155;29;20446;-80
2022/01/23 07:15:01;;;;;;;24.23;16.17;;;13.00;2201.60;;;;;;4847984;29;20025;-86
2022/01/23 07:17:27;;;;;;;38.78;22.00;;;12.90;2201.60;;;;;;4848009;29;20070;-82
2022/01/23 07:19:52;;;;;;;34.85;22.27;;;12.90;2201.60;;;;;;4848297;29;20124;-86
2022/01/23 07:22:18;;;;;;;22.27;14.35;;;12.90;2201.60;;;;;;4847772;29;20025;-85
2022/01/23 07:24:44;;;;;;;27.38;15.73;;;13.00;2201.60;;;;;;4848139;29;20029;-84
2022/01/23 07:27:17;;;;;;;20.73;14.50;;;13.00;2201.60;;;;;;4847824;29;20025;-86
2022/01/23 07:29:44;;;;;;;23.70;13.65;;;12.90;2201.60;;;;;;4847778;29;20025;-85
2022/01/23 07:32:10;;;;;;;28.98;16.70;;;12.90;2201.60;;;;;;4847769;29;20026;-87
2022/01/23 07:34:36;;;;;;;29.52;17.67;;;12.90;2201.60;;;;;;4847782;29;20057;-88
2022/01/23 07:37:03;;;;;;;29.10;16.75;;;12.90;2201.60;;;;;;4847767;29;20158;-83
2022/01/23 07:39:28;;;;;;;34.90;22.70;;;12.90;2201.60;;;;;;4847569;29;20048;-83
2022/01/23 07:41:54;;;;;;;26.25;18.08;;;0.00;2201.60;;;;;;4847744;29;20447;-85
2022/01/23 07:44:20;;;;;;;36.05;20.77;;;0.00;2201.60;;;;;;4847592;29;20040;-84
2022/01/23 07:46:46;;;;;;;39.95;23.65;;;0.10;2201.60;;;;;;4854774;29;20042;-83
2022/01/23 07:49:12;;;;;;;24.15;15.55;;;0.10;2201.60;;;;;;4871567;29;20014;-82
2022/01/23 07:51:38;;;;;;;26.00;14.98;;;0.00;2201.60;;;;;;4858265;29;20037;-81
2022/01/23 07:54:04;;;;;;;23.73;15.45;;;0.00;2201.60;;;;;;4850618;29;20436;-83
2022/01/23 07:56:30;;;;;;;28.35;19.73;;;12.90;2201.60;;;;;;4852674;29;20025;-82
2022/01/23 07:58:56;;;;;;;23.13;15.95;;;0.10;2201.60;;;;;;4847665;29;20029;-85
2022/01/23 08:01:22;;;;;;;22.52;13.48;;;0.10;2201.60;;;;;;4847396;29;20022;-83
2022/01/23 08:03:48;;;;;;;28.27;16.48;;;0.10;2201.60;;;;;;4847370;29;20112;-88
2022/01/23 08:06:15;;;;;;;37.05;19.02;;;0.10;2201.60;;;;;;4847075;29;20124;-86
2022/01/23 08:08:41;;;;;;;24.65;13.57;;;0.20;2201.60;;;;;;4847241;29;20099;-84
2022/01/23 08:11:08;;;;;;;46.22;23.38;;;0.10;2201.60;;;;;;4847090;29;20572;-87
2022/01/23 08:13:34;;;;;;;27.65;17.05;;;0.10;2201.60;;;;;;4863409;29;20089;-84
2022/01/23 08:16:01;;;;;;;33.45;17.15;;;13.20;2201.60;;;;;;4847033;29;20026;-89
2022/01/23 08:18:26;;;;;;;31.17;20.13;;;0.20;2201.60;;;;;;4846896;29;20587;-87
2022/01/23 08:20:52;;;;;;;17.13;11.13;;;0.30;2201.60;;;;;;4847079;29;20070;-85
2022/01/23 08:23:20;;;;;;;40.92;24.10;;;0.20;2201.60;;;;;;4847042;29;20029;-85
2022/01/23 08:25:46;;;;;;;43.03;27.40;;;0.30;2201.60;;;;;;4846651;29;20037;-86
2022/01/23 08:28:12;;;;;;;60.08;36.05;;;0.30;2201.60;;;;;;4846960;29;20123;-80
2022/01/23 08:30:37;;;;;;;86.28;42.17;;;0.30;2201.60;;;;;;4846524;29;20386;-84
2022/01/23 08:33:03;;;;;;;47.28;27.08;;;0.40;2201.60;;;;;;4846762;29;20033;-82
2022/01/23 08:35:29;;;;;;;38.72;23.35;;;0.40;2201.60;;;;;;4846953;29;20026;-87
2022/01/23 08:37:56;;;;;;;45.92;25.55;;;0.40;2201.60;;;;;;4846804;29;20021;-86
2022/01/23 08:40:34;;;;;;;32.08;19.63;;;0.50;2201.60;;;;;;4846607;29;20423;-87
2022/01/23 08:43:00;;;;;;;44.80;25.73;;;0.60;2201.60;;;;;;4846714;29;20434;-82
2022/01/23 08:45:26;;;;;;;48.42;28.73;;;0.60;2201.60;;;;;;4846606;29;20060;-86
2022/01/23 08:47:52;;;;;;;33.38;21.55;;;0.60;2201.60;;;;;;4846450;29;20026;-87
2022/01/23 08:50:18;;;;;;;35.83;24.20;;;0.70;2201.60;;;;;;4846494;29;20025;-85
2022/01/23 08:52:44;;;;;;;30.40;19.90;;;0.70;2201.60;;;;;;4845549;29;20026;-81
2022/01/23 08:55:10;;;;;;;45.92;29.58;;;0.60;2201.60;;;;;;4846457;29;20037;-86
2022/01/23 08:57:36;;;;;;;41.63;23.75;;;0.70;2201.60;;;;;;4846429;29;20026;-85
2022/01/23 09:00:03;;;;;;;32.22;18.85;;;0.70;2201.60;;;;;;4846451;29;20032;-86
2022/01/23 09:02:29;;;;;;;28.48;19.45;;;0.70;2201.60;;;;;;4846440;29;20033;-83
2022/01/23 09:04:56;;;;;;;21.45;15.88;;;0.60;2201.60;;;;;;4846488;29;20033;-89
2022/01/23 09:07:22;;;;;;;25.63;15.63;;;0.50;2201.60;;;;;;4846211;29;20026;-84
2022/01/23 09:09:48;;;;;;;22.88;14.35;;;0.60;2201.60;;;;;;4846310;29;20082;-82
2022/01/23 09:14:51;;;;;;;62.53;37.08;;;0.50;2201.60;;;;;;4862507;29;20455;-83
2022/01/23 09:17:17;;;;;;;43.58;23.77;;;0.50;2201.60;;;;;;4846212;29;20041;-86
2022/01/23 09:19:46;;;;;;;33.28;21.23;;;0.40;2201.60;;;;;;4846285;29;20022;-85
2022/01/23 09:22:12;;;;;;;43.30;24.60;;;0.40;2201.60;;;;;;4845802;29;20477;-87
2022/01/23 09:24:38;;;;;;;27.75;15.98;;;0.50;2201.60;;;;;;4845960;29;20458;-88
2022/01/23 09:27:07;;;;;;;26.20;16.02;;;0.40;2201.60;;;;;;4845959;29;20058;-86
2022/01/23 09:29:37;;;;;;;23.15;13.90;;;0.50;2201.60;;;;;;4846140;29;20026;-85
2022/01/23 09:32:11;;;;;;;24.30;13.55;;;0.60;2201.60;;;;;;4845917;29;20021;-88
2022/01/23 09:34:37;;;;;;;23.05;11.15;;;0.60;2201.60;;;;;;4845841;29;20486;-86
2022/01/23 09:37:07;;;;;;;23.50;16.00;;;0.70;2201.60;;;;;;4845725;29;20085;-85
2022/01/23 09:39:34;;;;;;;30.55;18.38;;;0.70;2201.60;;;;;;4845820;29;20120;-83
2022/01/23 09:42:11;;;;;;;17.55;11.32;;;0.70;2201.60;;;;;;4845536;29;20017;-88
2022/01/23 09:44:51;;;;;;;22.85;13.57;;;0.90;2201.60;;;;;;4845635;29;20037;-82
2022/01/23 09:47:19;;;;;;;25.55;15.10;;;25.60;2201.60;;;;;;4845774;29;20037;-84
2022/01/23 09:49:47;;;;;;;23.38;13.90;;;25.70;2201.60;;;;;;4845974;29;20514;-84
2022/01/23 09:52:14;;;;;;;19.98;11.60;;;25.80;2201.60;;;;;;4845623;29;20029;-86
2022/01/23 09:54:42;;;;;;;12.60;8.00;;;25.70;2201.60;;;;;;4845319;29;20109;-85
2022/01/23 09:57:09;;;;;;;16.63;9.68;;;25.70;2201.60;;;;;;4845308;29;20025;-85
2022/01/23 09:59:36;;;;;;;18.55;10.82;;;0.90;2201.60;;;;;;4845600;29;20166;-90
2022/01/23 10:02:03;;;;;;;27.17;12.68;;;25.70;2201.60;;;;;;4845688;29;20060;-81
2022/01/23 10:04:30;;;;;;;37.10;10.25;;;25.80;2201.60;;;;;;4844163;29;20033;-81
2022/01/23 10:06:57;;;;;;;31.20;12.85;;;25.70;2201.60;;;;;;4845316;29;20056;-84
2022/01/23 10:09:27;;;;;;;13.95;9.05;;;26.10;2201.60;;;;;;4845416;29;20116;-80
2022/01/23 10:11:53;;;;;;;16.38;8.55;;;25.80;2201.60;;;;;;4844981;29;20025;-78
2022/01/23 10:14:19;;;;;;;20.52;11.75;;;25.70;2201.60;;;;;;4845123;29;20066;-83
2022/01/23 10:16:47;;;;;;;23.52;12.52;;;25.70;2201.60;;;;;;4845026;29;20022;-80
2022/01/23 10:19:14;;;;;;;19.90;11.43;;;0.90;2201.60;;;;;;4844773;29;20029;-79
2022/01/23 10:21:43;;;;;;;19.67;11.25;;;0.80;2201.60;;;;;;4861185;29;20101;-77
2022/01/23 10:24:13;;;;;;;22.13;11.15;;;0.80;2201.60;;;;;;4844702;29;20128;-79
2022/01/23 10:26:44;;;;;;;29.35;14.63;;;0.80;2201.60;;;;;;4845042;29;20026;-79
2022/01/23 10:29:16;;;;;;;24.45;12.75;;;0.90;2201.60;;;;;;4845124;29;20043;-82
2022/01/23 10:32:08;;;;;;;22.25;13.00;;;25.60;2201.60;;;;;;4844793;29;20423;-76
2022/01/23 10:34:50;;;;;;;29.77;14.65;;;25.70;2201.60;;;;;;4844668;29;20136;-76
2022/01/23 10:37:33;;;;;;;17.38;10.60;;;25.80;2201.60;;;;;;4828356;29;20026;-79
2022/01/23 10:40:06;;;;;;;25.83;13.43;;;25.80;2201.60;;;;;;4825886;29;20038;-79
2022/01/23 10:47:59;;;;;;;33.20;21.38;;;26.20;2201.60;;;;;;4842527;29;20065;-80
2022/01/23 10:50:25;;;;;;;23.00;16.63;;;26.50;2201.60;;;;;;4825842;29;20054;-85
2022/01/23 10:52:53;;;;;;;27.55;16.15;;;51.20;2227.20;;;;;;4825454;29;20042;-84
2022/01/23 10:55:35;;;;;;;21.35;13.00;;;51.30;2227.20;;;;;;4826082;29;20026;-82
2022/01/23 10:58:06;;;;;;;26.75;15.30;;;51.50;2227.20;;;;;;4825664;29;20047;-84
2022/01/23 11:00:37;;;;;;;25.92;16.50;;;51.50;2227.20;;;;;;4825744;29;20121;-80
2022/01/23 11:03:23;;;;;;;38.45;19.55;;;51.40;2227.20;;;;;;4825909;29;20062;-81
2022/01/23 11:05:52;;;;;;;18.17;11.88;;;51.60;2227.20;;;;;;4825174;29;20034;-86
2022/01/23 11:08:23;;;;;;;25.05;13.27;;;51.60;2227.20;;;;;;4826771;29;20030;-84
2022/01/23 11:11:04;;;;;;;28.98;16.75;;;51.40;2227.20;;;;;;4826662;29;20034;-82
2022/01/23 11:19:16;;;;;;;36.47;21.38;;;51.50;2227.20;;;;;;4843882;29;20106;-82
2022/01/23 11:21:42;;;;;;;32.00;18.83;;;51.50;2227.20;;;;;;4823522;29;20455;-82
2022/01/23 11:24:09;;;;;;;15.63;9.00;;;51.60;2227.20;;;;;;4845248;29;20114;-81
2022/01/23 11:26:35;;;;;;;39.95;23.23;;;51.60;2227.20;;;;;;4828203;29;20133;-80
2022/01/23 11:29:17;;;;;;;36.95;19.45;;;51.80;2227.20;;;;;;4828314;29;20523;-84
2022/01/23 11:31:44;;;;;;;24.20;14.73;;;51.80;2227.20;;;;;;4828829;29;20026;-85
2022/01/23 11:34:13;;;;;;;23.80;13.25;;;51.90;2227.20;;;;;;4828161;29;20082;-82
2022/01/23 11:36:40;;;;;;;46.53;26.10;;;76.90;2227.20;;;;;;4828816;29;20112;-86
2022/01/23 11:39:13;;;;;;;55.58;32.67;;;77.10;2227.20;;;;;;4828744;29;20026;-84
2022/01/23 11:50:45;;;;;;;28.38;18.50;;;51.90;2227.20;;;;;;4845011;29;20086;-83
2022/01/23 11:56:30;;;;;;;27.38;17.30;;;51.60;2227.20;;;;;;4844351;29;20090;-83
2022/01/23 11:59:32;;;;;;;31.08;17.55;;;51.70;2227.20;;;;;;4828489;29;20026;-86
2022/01/23 12:02:11;;;;;;;50.60;24.38;;;51.60;2227.20;;;;;;4828280;29;20116;-84
2022/01/23 12:04:38;;;;;;;33.60;20.02;;;51.70;2227.20;;;;;;4828417;29;20459;-83
2022/01/23 12:07:15;;;;;;;33.53;19.23;;;51.80;2227.20;;;;;;4828388;29;20074;-85
2022/01/23 12:10:03;;;;;;;19.30;10.82;;;52.00;2227.20;;;;;;4827721;29;20026;-81
2022/01/23 12:12:50;;;;;;;20.35;12.55;;;51.80;2227.20;;;;;;4828073;29;20022;-82
2022/01/23 12:18:16;;;;;;;12.98;7.97;;;77.70;2227.20;;;;;;4844479;29;20094;-86
2022/01/23 12:20:44;;;;;;;15.65;9.73;;;102.60;2227.20;;;;;;4827951;29;20033;-83
2022/01/23 12:23:10;;;;;;;20.98;14.63;;;102.90;2227.20;;;;;;4827873;29;20086;-83
2022/01/23 12:25:44;;;;;;;20.45;12.57;;;103.20;2227.20;;;;;;4827940;29;20030;-83
2022/01/23 12:28:25;;;;;;;24.15;14.23;;;128.20;2252.80;;;;;;4843816;29;20041;-84
2022/01/23 12:30:56;;;;;;;26.08;14.55;;;128.40;2252.80;;;;;;4828344;29;20036;-84
2022/01/23 12:33:39;;;;;;;16.00;10.73;;;103.30;2227.20;;;;;;4827707;29;20099;-85
2022/01/23 12:36:20;;;;;;;16.90;11.07;;;102.60;2227.20;;;;;;4833351;29;20013;-81
2022/01/23 12:38:50;;;;;;;20.40;16.73;;;77.70;2227.20;;;;;;4851645;29;20026;-85
2022/01/23 12:41:27;;;;;;;26.40;19.20;;;77.20;2227.20;;;;;;4846980;29;20463;-83
2022/01/23 12:44:06;;;;;;;16.13;10.65;;;76.90;2227.20;;;;;;4832451;29;20408;-84
2022/01/23 12:46:36;;;;;;;11.10;8.10;;;76.80;2227.20;;;;;;4831503;29;20033;-82
2022/01/23 12:49:21;;;;;;;12.52;10.48;;;;;;;;;;4830072;29;20026;-84
2022/01/23 12:52:12;;;;;;;24.75;12.93;;;51.60;2227.20;;;;;;4828065;29;20166;-83
2022/01/23 12:54:47;;;;;;;28.83;22.00;;;51.50;2227.20;;;;;;4827316;29;20057;-85
2022/01/23 12:57:18;;;;;;;16.35;11.68;;;51.40;2227.20;;;;;;4828236;29;20057;-85
2022/01/23 13:00:00;;;;;;;26.63;15.38;;;51.60;2227.20;;;;;;4828324;29;20030;-86
2022/01/23 13:02:32;;;;;;;29.00;18.75;;;51.60;2227.20;;;;;;4828035;29;20056;-87
2022/01/23 13:04:58;;;;;;;14.20;9.90;;;51.60;2227.20;;;;;;4828586;29;20037;-83
2022/01/23 13:07:41;;;;;;;19.85;13.35;;;;;;;;;;4828342;29;20036;-86
2022/01/23 13:29:56;;;;;;;28.35;18.83;;;25.90;2201.60;;;;;;4856701;29;20033;-84
2022/01/23 13:35:08;;;;;;;23.27;13.43;;;26.00;2201.60;;;;;;4828987;29;20045;-87
2022/01/23 13:37:38;;;;;;;32.38;19.92;;;25.90;2201.60;;;;;;4827154;29;20086;-86
2022/01/23 13:40:27;;;;;;;30.08;19.17;;;25.90;2201.60;;;;;;4827223;29;20026;-86
2022/01/23 13:51:29;;;;;;;30.13;17.73;;;25.70;2201.60;;;;;;4825110;29;20030;-85
2022/01/23 13:59:32;;;;;;;45.58;23.52;;;0.70;2201.60;;;;;;4850476;29;20144;-85
2022/01/23 14:04:38;;;;;;;35.65;22.08;;;25.60;2201.60;;;;;;4854129;29;20033;-88
2022/01/23 14:07:04;;;;;;;34.28;20.80;;;0.90;2201.60;;;;;;4844168;29;20026;-83
2022/01/23 14:09:40;;;;;;;19.90;12.68;;;25.60;2201.60;;;;;;4844220;29;20454;-85
2022/01/23 14:12:11;;;;;;;46.85;29.13;;;25.60;2201.60;;;;;;4853996;29;20455;-80
2022/01/23 14:14:49;;;;;;;35.78;22.25;;;25.60;2201.60;;;;;;4844532;29;20033;-86
2022/01/23 14:17:15;;;;;;;44.47;26.20;;;25.60;2201.60;;;;;;4828314;29;20026;-84
2022/01/23 14:19:54;;;;;;;38.40;23.42;;;25.60;2201.60;;;;;;4826707;29;20090;-84
2022/01/23 14:22:27;;;;;;;29.60;19.02;;;25.60;2201.60;;;;;;4826284;29;20030;-85
2022/01/23 14:25:16;;;;;;;26.30;14.68;;;25.60;2201.60;;;;;;4826871;29;20125;-82
2022/01/23 14:27:45;;;;;;;23.90;14.82;;;0.90;2201.60;;;;;;4825825;29;20068;-84
2022/01/23 14:30:17;;;;;;;29.08;19.38;;;0.70;2201.60;;;;;;4842514;29;20034;-81
2022/01/23 14:32:53;;;;;;;31.30;16.75;;;0.60;2201.60;;;;;;4826165;29;20094;-84
2022/01/23 14:35:26;;;;;;;24.27;14.05;;;0.60;2201.60;;;;;;4825968;29;20042;-85
2022/01/23 14:37:52;;;;;;;29.80;16.65;;;0.60;2201.60;;;;;;4826616;29;20030;-87
2022/01/23 14:40:26;;;;;;;36.85;22.00;;;0.60;2201.60;;;;;;4826082;29;20583;-85
2022/01/23 14:43:11;;;;;;;39.20;23.33;;;0.40;2201.60;;;;;;4811097;29;20032;-79
2022/01/23 14:45:43;;;;;;;36.03;24.17;;;0.60;2201.60;;;;;;4808212;29;20027;-85
2022/01/23 14:48:10;;;;;;;55.38;38.53;;;0.60;2201.60;;;;;;4807919;29;20121;-84
2022/01/23 14:50:39;;;;;;;40.00;26.65;;;0.60;2201.60;;;;;;4809799;29;20035;-83
2022/01/23 14:53:14;;;;;;;30.13;18.42;;;0.60;2201.60;;;;;;4811180;29;20046;-85
2022/01/23 14:55:44;;;;;;;31.02;17.95;;;0.60;2201.60;;;;;;4811399;29;20098;-86
2022/01/23 14:58:35;;;;;;;46.50;24.92;;;0.50;2201.60;;;;;;4811921;29;20123;-89
2022/01/23 15:01:10;;;;;;;43.42;27.27;;;0.50;2201.60;;;;;;4827426;29;20499;-84
2022/01/23 15:03:37;;;;;;;41.37;21.70;;;0.60;2201.60;;;;;;4811316;29;20054;-83
2022/01/23 15:06:04;;;;;;;31.67;20.00;;;0.50;2201.60;;;;;;4810634;29;20031;-84
2022/01/23 15:08:30;;;;;;;59.40;29.85;;;0.60;2201.60;;;;;;4811251;29;20375;-87
2022/01/23 15:10:58;;;;;;;60.78;31.52;;;0.60;2201.60;;;;;;4819133;29;20054;-79
2022/01/23 15:13:26;;;;;;;45.28;24.25;;;0.60;2201.60;;;;;;4845251;29;20112;-82
2022/01/23 15:15:53;;;;;;;41.35;21.08;;;0.50;2201.60;;;;;;4829011;29;20038;-85
2022/01/23 15:18:20;;;;;;;72.03;37.55;;;0.50;2201.60;;;;;;4829100;29;20363;-87
2022/01/23 15:20:49;;;;;;;112.43;61.03;;;0.60;2201.60;;;;;;4829024;29;20038;-84
2022/01/23 15:23:15;;;;;;;61.20;29.58;;;0.40;2201.60;;;;;;4829191;29;20419;-84
2022/01/23 15:25:43;;;;;;;22.13;12.77;;;0.40;2201.60;;;;;;4829465;29;20074;-85
2022/01/23 15:28:10;;;;;;;75.82;41.65;;;0.30;2201.60;;;;;;4828459;29;20041;-83
2022/01/23 15:30:36;;;;;;;40.00;24.75;;;0.30;2201.60;;;;;;4829125;29;20528;-81
2022/01/23 15:33:06;;;;;;;34.00;18.95;;;0.30;2201.60;;;;;;4829156;29;20083;-84
2022/01/23 15:35:33;;;;;;;32.92;21.02;;;0.30;2201.60;;;;;;4841235;29;20046;-81
2022/01/23 15:37:59;;;;;;;26.63;16.35;;;0.30;2201.60;;;;;;4847059;29;20041;-81
2022/01/23 15:40:27;;;;;;;23.48;14.00;;;0.30;2201.60;;;;;;4846951;29;20033;-84
2022/01/23 15:42:54;;;;;;;26.38;16.52;;;0.30;2201.60;;;;;;4847107;29;20504;-81
2022/01/23 15:45:24;;;;;;;25.98;14.50;;;0.20;2201.60;;;;;;4844113;29;20036;-82
2022/01/23 15:47:51;;;;;;;21.63;12.63;;;0.30;2201.60;;;;;;4847084;29;20033;-86
2022/01/23 15:50:19;;;;;;;44.88;23.05;;;0.30;2201.60;;;;;;4845894;29;20037;-83
2022/01/23 15:52:46;;;;;;;30.55;19.35;;;0.40;2201.60;;;;;;4827389;29;20022;-83
2022/01/23 15:55:15;;;;;;;40.92;22.77;;;0.30;2201.60;;;;;;4828580;29;20038;-81
2022/01/23 15:57:41;;;;;;;33.92;21.33;;;0.30;2201.60;;;;;;4828707;29;20034;-83
2022/01/23 16:00:10;;;;;;;56.15;34.38;;;0.30;2201.60;;;;;;4829431;29;20527;-85
2022/01/23 16:02:36;;;;;;;69.18;37.97;;;0.30;2201.60;;;;;;4829361;29;20112;-90
2022/01/23 16:05:03;;;;;;;41.50;25.75;;;0.40;2201.60;;;;;;4829450;29;20136;-87
2022/01/23 16:07:29;;;;;;;45.70;28.48;;;0.30;2201.60;;;;;;4830060;29;20033;-84